createdAt,value
2023-04-18T00:02:15.857Z,6.72
2023-04-18T00:04:46.345Z,6.95
2023-04-18T00:07:16.483Z,6.88
2023-04-18T00:09:44.792Z,5.55
2023-04-18T00:12:13.403Z,6.10
2023-04-18T00:14:41.760Z,5.88
2023-04-18T00:17:11.474Z,5.43
2023-04-18T00:22:13.191Z,5.55
2023-04-18T00:24:41.272Z,5.75
2023-04-18T00:27:10.170Z,5.80
2023-04-18T00:29:38.078Z,6.45
2023-04-18T00:32:06.759Z,5.45
2023-04-18T00:34:36.666Z,5.57
2023-04-18T00:39:32.401Z,5.75
2023-04-18T00:42:01.740Z,5.57
2023-04-18T00:44:29.703Z,6.75
2023-04-18T00:46:58.721Z,6.40
2023-04-18T00:49:28.681Z,6.00
2023-04-18T00:51:58.432Z,6.78
2023-04-18T00:54:28.573Z,5.68
2023-04-18T00:56:57.721Z,6.43
2023-04-18T00:59:25.655Z,6.30
2023-04-18T01:01:54.624Z,5.20
2023-04-18T01:04:23.383Z,5.47
2023-04-18T01:06:51.577Z,5.90
2023-04-18T01:09:22.767Z,5.85
2023-04-18T01:11:53.284Z,6.53
2023-04-18T01:14:22.621Z,5.07
2023-04-18T01:16:50.740Z,6.50
2023-04-18T01:19:20.265Z,5.80
2023-04-18T01:21:49.292Z,7.25
2023-04-18T01:24:18.937Z,5.88
2023-04-18T01:26:49.723Z,6.72
2023-04-18T01:29:17.693Z,5.97
2023-04-18T01:31:46.339Z,6.13
2023-04-18T01:34:18.246Z,6.60
2023-04-18T01:36:47.045Z,6.78
2023-04-18T01:39:15.964Z,6.28
2023-04-18T01:41:45.403Z,6.80
2023-04-18T01:44:14.149Z,7.72
2023-04-18T01:46:43.295Z,6.80
2023-04-18T01:49:11.548Z,5.75
2023-04-18T01:51:39.977Z,6.95
2023-04-18T01:54:08.791Z,6.57
2023-04-18T01:56:36.719Z,6.28
2023-04-18T01:59:06.551Z,7.20
2023-04-18T02:01:35.740Z,6.50
2023-04-18T02:04:03.777Z,6.80
2023-04-18T02:06:32.228Z,6.93
2023-04-18T02:09:01.517Z,7.10
2023-04-18T02:11:29.490Z,7.40
2023-04-18T02:13:59.538Z,7.15
2023-04-18T02:16:29.853Z,7.32
2023-04-18T02:18:57.892Z,7.93
2023-04-18T02:21:26.314Z,7.15
2023-04-18T02:23:54.708Z,7.07
2023-04-18T02:26:23.181Z,8.57
2023-04-18T02:28:51.097Z,7.57
2023-04-18T02:31:19.973Z,7.45
2023-04-18T02:33:49.316Z,7.85
2023-04-18T02:36:17.719Z,7.85
2023-04-18T02:38:47.597Z,10.13
2023-04-18T02:43:48.655Z,8.10
2023-04-18T02:46:18.133Z,8.68
2023-04-18T02:48:50.861Z,8.57
2023-04-18T02:51:22.108Z,8.02
2023-04-18T02:53:55.386Z,9.52
2023-04-18T02:56:24.451Z,9.50
2023-04-18T02:59:11.476Z,9.80
2023-04-18T03:02:02.432Z,10.00
2023-04-18T03:04:33.397Z,9.73
2023-04-18T03:07:04.311Z,9.05
2023-04-18T03:09:36.377Z,8.90
2023-04-18T03:12:12.624Z,8.98
2023-04-18T03:14:40.759Z,10.05
2023-04-18T03:17:09.447Z,8.05
2023-04-18T03:19:43.557Z,9.05
2023-04-18T03:22:15.107Z,9.10
2023-04-18T03:24:51.673Z,11.85
2023-04-18T03:29:49.554Z,10.18
2023-04-18T03:32:18.879Z,8.20
2023-04-18T03:34:48.492Z,9.57
2023-04-18T03:37:18.388Z,8.45
2023-04-18T03:39:51.507Z,8.52
2023-04-18T03:42:20.754Z,9.60
2023-04-18T03:44:50.036Z,7.80
2023-04-18T03:47:18.191Z,10.05
2023-04-18T03:49:52.026Z,9.20
2023-04-18T03:54:48.925Z,11.52
2023-04-18T03:57:20.126Z,9.93
2023-04-18T03:59:49.160Z,10.48
2023-04-18T04:02:17.220Z,10.80
2023-04-18T04:04:45.775Z,11.07
2023-04-18T04:07:16.447Z,12.32
2023-04-18T04:09:44.499Z,11.88
2023-04-18T04:12:12.587Z,12.82
2023-04-18T04:14:41.516Z,14.20
2023-04-18T04:17:10.357Z,13.52
2023-04-18T04:22:17.108Z,13.95
2023-04-18T04:24:47.260Z,15.38
2023-04-18T04:27:20.542Z,15.35
2023-04-18T04:29:50.352Z,13.80
2023-04-18T04:32:20.617Z,13.90
2023-04-18T04:34:49.911Z,15.50
2023-04-18T04:37:20.165Z,13.18
2023-04-18T04:40:17.740Z,14.10
2023-04-18T04:42:56.843Z,13.38
2023-04-18T04:45:31.231Z,14.82
2023-04-18T04:48:00.265Z,14.30
2023-04-18T04:50:28.292Z,15.00
2023-04-18T04:52:58.114Z,13.40
2023-04-18T04:55:26.764Z,17.95
2023-04-18T04:57:56.250Z,13.05
2023-04-18T05:00:44.506Z,15.32
2023-04-18T05:03:12.773Z,16.80
2023-04-18T05:05:40.930Z,12.65
2023-04-18T05:08:11.337Z,12.98
2023-04-18T05:13:07.080Z,12.95
2023-04-18T05:15:36.217Z,11.13
2023-04-18T05:18:04.368Z,13.88
2023-04-18T05:20:32.713Z,13.30
2023-04-18T05:23:01.014Z,17.33
2023-04-18T05:25:32.192Z,17.13
2023-04-18T05:28:01.463Z,15.65
2023-04-18T05:30:29.830Z,14.95
2023-04-18T05:32:58.263Z,14.85
2023-04-18T05:35:26.308Z,19.65
2023-04-18T05:37:55.165Z,17.30
2023-04-18T05:40:23.220Z,16.50
2023-04-18T05:42:53.113Z,17.52
2023-04-18T05:45:21.488Z,18.48
2023-04-18T05:47:49.493Z,17.08
2023-04-18T05:50:18.083Z,17.33
2023-04-18T05:52:46.466Z,15.90
2023-04-18T05:55:14.435Z,15.68
2023-04-18T05:57:42.876Z,16.10
2023-04-18T06:00:14.049Z,17.35
2023-04-18T06:02:42.578Z,17.92
2023-04-18T06:05:11.997Z,19.77
2023-04-18T06:07:40.677Z,16.02
2023-04-18T06:10:13.829Z,16.65
2023-04-18T06:12:41.824Z,14.90
2023-04-18T06:15:13.424Z,18.40
2023-04-18T06:17:41.581Z,18.20
2023-04-18T06:20:11.250Z,18.17
2023-04-18T06:22:41.644Z,16.50
2023-04-18T06:25:10.700Z,19.73
2023-04-18T06:27:39.261Z,18.92
2023-04-18T06:30:08.851Z,19.40
2023-04-18T06:32:38.729Z,17.70
2023-04-18T06:35:07.985Z,19.00
2023-04-18T06:37:36.981Z,16.38
2023-04-18T06:40:05.773Z,16.67
2023-04-18T06:42:34.697Z,17.83
2023-04-18T06:45:04.383Z,17.48
2023-04-18T06:47:32.447Z,17.30
2023-04-18T06:50:03.208Z,17.10
2023-04-18T06:52:31.034Z,18.90
2023-04-18T06:54:59.704Z,19.73
2023-04-18T06:57:27.631Z,21.00
2023-04-18T06:59:55.450Z,20.77
2023-04-18T07:02:24.499Z,18.55
2023-04-18T07:04:52.440Z,19.35
2023-04-18T07:07:22.674Z,18.40
2023-04-18T07:09:52.729Z,20.05
2023-04-18T07:12:21.293Z,18.20
2023-04-18T07:14:49.708Z,20.35
2023-04-18T07:17:17.897Z,21.45
2023-04-18T07:19:46.294Z,19.38
2023-04-18T07:22:15.075Z,21.63
2023-04-18T07:24:44.413Z,20.63
2023-04-18T07:27:13.280Z,20.02
2023-04-18T07:29:41.126Z,18.48
2023-04-18T07:32:11.047Z,19.40
2023-04-18T07:34:40.277Z,19.75
2023-04-18T07:37:08.664Z,19.35
2023-04-18T07:39:39.246Z,19.48
2023-04-18T07:42:08.613Z,20.98
2023-04-18T07:47:05.531Z,18.70
2023-04-18T07:49:33.540Z,19.00
2023-04-18T07:52:01.468Z,18.20
2023-04-18T07:54:30.344Z,18.85
2023-04-18T07:56:59.150Z,21.73
2023-04-18T07:59:30.389Z,20.75
2023-04-18T08:01:58.318Z,17.10
2023-04-18T08:04:29.836Z,20.30
2023-04-18T08:06:58.988Z,18.88
2023-04-18T08:09:27.321Z,19.20
2023-04-18T08:11:57.887Z,17.52
2023-04-18T08:14:26.274Z,18.98
2023-04-18T08:16:56.294Z,18.95
2023-04-18T08:19:24.369Z,18.35
2023-04-18T08:21:52.735Z,21.50
2023-04-18T08:24:21.657Z,19.60
2023-04-18T08:26:49.578Z,18.48
2023-04-18T08:29:18.057Z,22.85
2023-04-18T08:31:46.565Z,17.00
2023-04-18T08:34:15.941Z,16.52
2023-04-18T08:36:44.398Z,17.73
2023-04-18T08:39:12.986Z,17.90
2023-04-18T08:41:44.165Z,18.52
2023-04-18T08:44:13.664Z,17.27
2023-04-18T08:46:41.770Z,17.80
2023-04-18T08:49:11.987Z,17.90
2023-04-18T08:54:12.800Z,18.17
2023-04-18T08:56:40.979Z,17.83
2023-04-18T08:59:09.606Z,15.73
2023-04-18T09:02:02.017Z,19.10
2023-04-18T09:04:40.891Z,18.73
2023-04-18T09:07:12.383Z,18.30
2023-04-18T09:09:45.428Z,17.77
2023-04-18T09:12:15.798Z,18.27
2023-04-18T09:14:45.552Z,16.88
2023-04-18T09:17:16.831Z,19.08
2023-04-18T09:19:50.261Z,19.38
2023-04-18T09:22:20.434Z,19.00
2023-04-18T09:24:55.453Z,16.80
2023-04-18T09:27:25.361Z,16.50
2023-04-18T09:29:55.906Z,16.00
2023-04-18T09:32:31.191Z,16.98
2023-04-18T09:35:03.910Z,15.85
2023-04-18T09:37:34.832Z,16.98
2023-04-18T09:40:17.965Z,15.63
2023-04-18T09:42:47.042Z,17.67
2023-04-18T09:45:15.520Z,17.73
2023-04-18T09:47:43.966Z,17.05
2023-04-18T09:50:12.631Z,16.45
2023-04-18T09:52:43.560Z,17.17
2023-04-18T09:55:13.838Z,17.55
2023-04-18T10:02:50.372Z,14.82
2023-04-18T10:05:21.542Z,14.13
2023-04-18T10:07:51.758Z,13.40
2023-04-18T10:10:20.820Z,13.65
2023-04-18T10:12:51.163Z,13.75
2023-04-18T10:15:21.217Z,14.68
2023-04-18T10:18:04.297Z,15.77
2023-04-18T10:20:36.124Z,14.82
2023-04-18T10:23:37.079Z,14.77
2023-04-18T10:26:06.035Z,14.85
2023-04-18T10:28:55.222Z,13.10
2023-04-18T10:31:24.727Z,15.70
2023-04-18T10:37:04.719Z,13.70
2023-04-18T10:39:49.508Z,13.40
2023-04-18T10:42:19.433Z,13.05
2023-04-18T10:45:22.118Z,14.90
2023-04-18T10:47:50.652Z,15.90
2023-04-18T10:50:19.181Z,13.30
2023-04-18T10:52:47.580Z,15.10
2023-04-18T10:55:20.307Z,13.27
2023-04-18T10:57:51.005Z,11.73
2023-04-18T11:00:21.592Z,13.38
2023-04-18T11:02:56.675Z,12.15
2023-04-18T11:05:26.900Z,14.80
2023-04-18T11:07:57.224Z,12.57
2023-04-18T11:10:28.537Z,14.65
2023-04-18T11:12:57.377Z,11.35
2023-04-18T11:15:27.969Z,13.45
2023-04-18T11:18:02.450Z,14.52
2023-04-18T11:20:31.362Z,12.48
2023-04-18T11:23:01.454Z,12.90
2023-04-18T11:25:32.248Z,12.23
2023-04-18T11:28:02.988Z,13.15
2023-04-18T11:30:38.565Z,12.07
2023-04-18T11:33:10.499Z,15.15
2023-04-18T11:35:39.684Z,12.02
2023-04-18T11:38:07.943Z,13.85
2023-04-18T11:40:38.959Z,12.38
2023-04-18T11:43:09.469Z,11.18
2023-04-18T11:45:38.290Z,12.32
2023-04-18T11:48:06.377Z,12.00
2023-04-18T11:50:37.712Z,12.40
2023-04-18T11:53:06.518Z,12.07
2023-04-18T11:55:34.541Z,12.38
2023-04-18T11:58:04.919Z,12.25
2023-04-18T12:00:35.287Z,11.60
2023-04-18T12:03:05.986Z,11.05
2023-04-18T12:05:36.211Z,13.52
2023-04-18T12:08:08.896Z,13.38
2023-04-18T12:10:37.824Z,11.93
2023-04-18T12:13:09.610Z,13.25
2023-04-18T12:15:40.911Z,12.05
2023-04-18T12:18:09.542Z,12.10
2023-04-18T12:20:39.604Z,12.63
2023-04-18T12:25:36.527Z,11.18
2023-04-18T12:28:15.894Z,11.73
2023-04-18T12:30:45.792Z,10.68
2023-04-18T12:33:13.728Z,11.50
2023-04-18T12:35:42.999Z,10.55
2023-04-18T12:38:11.622Z,10.23
2023-04-18T12:40:41.001Z,10.32
2023-04-18T12:45:38.615Z,11.70
2023-04-18T12:48:08.633Z,10.23
2023-04-18T12:53:05.804Z,9.30
2023-04-18T12:55:34.278Z,9.85
2023-04-18T12:58:02.814Z,10.32
2023-04-18T13:00:32.508Z,11.70
2023-04-18T13:03:01.525Z,10.05
2023-04-18T13:05:33.460Z,11.05
2023-04-18T13:08:15.319Z,10.00
2023-04-18T13:10:46.603Z,11.20
2023-04-18T13:13:14.610Z,10.00
2023-04-18T13:15:43.539Z,9.18
2023-04-18T13:18:11.571Z,11.07
2023-04-18T13:20:41.191Z,9.73
2023-04-18T13:23:10.059Z,9.32
2023-04-18T13:25:38.026Z,8.65
2023-04-18T13:28:07.191Z,9.38
2023-04-18T13:30:36.689Z,10.75
2023-04-18T13:33:04.775Z,11.40
2023-04-18T13:35:33.660Z,9.57
2023-04-18T13:38:04.576Z,9.10
2023-04-18T13:40:33.949Z,8.25
2023-04-18T13:43:02.481Z,8.93
2023-04-18T13:45:30.431Z,9.90
2023-04-18T13:47:59.530Z,8.57
2023-04-18T13:50:27.919Z,10.57
2023-04-18T13:52:56.112Z,10.30
2023-04-18T13:55:25.962Z,8.40
2023-04-18T14:00:22.388Z,8.95
2023-04-18T14:02:51.236Z,8.45
2023-04-18T14:05:19.816Z,9.57
2023-04-18T14:07:49.627Z,11.05
2023-04-18T14:10:17.513Z,7.53
2023-04-18T14:12:47.718Z,8.07
2023-04-18T14:15:16.849Z,9.32
2023-04-18T14:17:45.682Z,7.88
2023-04-18T14:20:16.037Z,7.97
2023-04-18T14:22:44.039Z,8.32
2023-04-18T14:25:14.325Z,8.85
2023-04-18T14:27:42.722Z,8.25
2023-04-18T14:30:13.512Z,8.27
2023-04-18T14:32:42.370Z,8.02
2023-04-18T14:35:11.366Z,8.93
2023-04-18T14:37:39.688Z,7.57
2023-04-18T14:40:11.644Z,9.00
2023-04-18T14:42:39.563Z,8.10
2023-04-18T14:45:11.690Z,7.32
2023-04-18T14:47:42.027Z,7.15
2023-04-18T14:50:12.821Z,7.05
2023-04-18T14:52:41.272Z,7.00
2023-04-18T14:55:10.819Z,8.25
2023-04-18T14:57:40.421Z,6.68
2023-04-18T15:00:11.261Z,8.60
2023-04-18T15:02:42.092Z,7.63
2023-04-18T15:05:12.212Z,7.82
2023-04-18T15:07:41.334Z,9.18
2023-04-18T15:10:12.560Z,6.82
2023-04-18T15:12:42.127Z,7.43
2023-04-18T15:15:10.822Z,8.27
2023-04-18T15:17:39.336Z,7.72
2023-04-18T15:20:10.416Z,6.88
2023-04-18T15:22:38.539Z,7.82
2023-04-18T15:25:07.846Z,7.03
2023-04-18T15:27:35.802Z,7.18
2023-04-18T15:30:04.248Z,6.82
2023-04-18T15:32:33.395Z,7.35
2023-04-18T15:35:01.321Z,7.10
2023-04-18T15:37:31.004Z,6.40
2023-04-18T15:39:59.280Z,7.03
2023-04-18T15:42:28.481Z,6.82
2023-04-18T15:44:56.375Z,6.38
2023-04-18T15:47:24.695Z,7.72
2023-04-18T15:49:54.860Z,6.53
2023-04-18T15:52:22.770Z,8.60
2023-04-18T15:54:53.413Z,6.35
2023-04-18T15:57:22.615Z,6.32
2023-04-18T15:59:50.508Z,6.28
2023-04-18T16:02:18.975Z,6.15
2023-04-18T16:04:47.461Z,6.05
2023-04-18T16:07:16.196Z,6.85
2023-04-18T16:09:44.093Z,7.20
2023-04-18T16:12:13.834Z,7.13
2023-04-18T16:14:42.218Z,7.78
2023-04-18T16:17:10.157Z,6.70
2023-04-18T16:19:41.368Z,6.97
2023-04-18T16:22:10.559Z,6.43
2023-04-18T16:27:10.842Z,6.38
2023-04-18T16:29:40.163Z,7.97
2023-04-18T16:34:37.322Z,8.63
2023-04-18T16:37:05.724Z,7.95
2023-04-18T16:39:33.723Z,8.65
2023-04-18T16:42:02.889Z,7.85
2023-04-18T16:44:33.123Z,8.38
2023-04-18T16:47:06.066Z,7.75
2023-04-18T16:49:35.000Z,10.55
2023-04-18T16:52:02.956Z,7.80
2023-04-18T16:54:31.418Z,8.23
2023-04-18T16:56:59.829Z,12.10
2023-04-18T16:59:27.815Z,10.00
2023-04-18T17:01:57.048Z,8.48
2023-04-18T17:04:27.610Z,8.02
2023-04-18T17:06:55.664Z,9.05
2023-04-18T17:09:26.620Z,8.75
2023-04-18T17:11:54.593Z,9.57
2023-04-18T17:14:24.281Z,11.20
2023-04-18T17:16:53.715Z,9.48
2023-04-18T17:19:22.188Z,10.18
2023-04-18T17:21:51.633Z,9.52
2023-04-18T17:24:22.870Z,10.50
2023-04-18T17:26:51.099Z,9.55
2023-04-18T17:29:19.640Z,8.85
2023-04-18T17:31:49.548Z,9.30
2023-04-18T17:34:19.258Z,10.35
2023-04-18T17:36:47.231Z,10.05
2023-04-18T17:39:18.098Z,9.27
2023-04-18T17:41:46.193Z,10.25
2023-04-18T17:44:14.157Z,10.82
2023-04-18T17:46:43.018Z,11.60
2023-04-18T17:49:11.380Z,10.13
2023-04-18T17:51:40.504Z,10.13
2023-04-18T17:54:10.690Z,10.93
2023-04-18T17:56:41.027Z,11.63
2023-04-18T17:59:10.297Z,11.38
2023-04-18T18:01:38.965Z,11.27
2023-04-18T18:04:07.120Z,11.48
2023-04-18T18:06:36.248Z,10.75
2023-04-18T18:09:04.294Z,11.55
2023-04-18T18:11:33.131Z,11.18
2023-04-18T18:14:02.411Z,11.50
2023-04-18T18:16:31.522Z,10.55
2023-04-18T18:18:59.640Z,12.85
2023-04-18T18:21:28.739Z,10.57
2023-04-18T18:23:57.680Z,12.05
2023-04-18T18:26:33.188Z,10.73
2023-04-18T18:29:09.514Z,11.63
2023-04-18T18:31:37.763Z,11.15
2023-04-18T18:34:06.149Z,12.18
2023-04-18T18:36:34.943Z,11.60
2023-04-18T18:39:03.747Z,11.35
2023-04-18T18:41:31.877Z,11.55
2023-04-18T18:44:00.939Z,11.43
2023-04-18T18:46:31.120Z,11.27
2023-04-18T18:48:59.178Z,12.38
2023-04-18T18:51:29.677Z,11.88
2023-04-18T18:53:57.976Z,12.05
2023-04-18T18:56:26.036Z,11.77
2023-04-18T18:58:55.922Z,13.25
2023-04-18T19:01:24.184Z,11.48
2023-04-18T19:03:54.180Z,14.10
2023-04-18T19:06:23.824Z,11.73
2023-04-18T19:08:51.924Z,13.03
2023-04-18T19:11:21.061Z,10.25
2023-04-18T19:13:52.658Z,12.02
2023-04-18T19:16:20.924Z,11.13
2023-04-18T19:18:50.655Z,13.17
2023-04-18T19:21:21.231Z,10.77
2023-04-18T19:26:17.958Z,10.48
2023-04-18T19:28:46.008Z,11.13
2023-04-18T19:31:14.993Z,11.43
2023-04-18T19:33:43.024Z,13.45
2023-04-18T19:36:11.401Z,10.45
2023-04-18T19:38:43.267Z,9.93
2023-04-18T19:41:11.602Z,11.40
2023-04-18T19:43:41.172Z,11.23
2023-04-18T19:46:09.273Z,12.02
2023-04-18T19:48:37.529Z,10.45
2023-04-18T19:51:06.028Z,10.63
2023-04-18T19:53:35.511Z,12.75
2023-04-18T19:56:05.067Z,12.20
2023-04-18T20:01:07.647Z,11.27
2023-04-18T20:03:36.560Z,12.95
2023-04-18T20:06:06.817Z,10.27
2023-04-18T20:08:36.874Z,14.15
2023-04-18T20:11:08.762Z,11.85
2023-04-18T20:13:37.596Z,11.93
2023-04-18T20:16:05.995Z,13.10
2023-04-18T20:18:36.247Z,11.68
2023-04-18T20:21:04.422Z,11.35
2023-04-18T20:23:33.317Z,12.95
2023-04-18T20:26:01.310Z,11.80
2023-04-18T20:28:31.635Z,12.60
2023-04-18T20:31:20.687Z,11.73
2023-04-18T20:33:49.081Z,13.17
2023-04-18T20:36:17.680Z,11.05
2023-04-18T20:38:47.229Z,12.40
2023-04-18T20:41:18.568Z,13.50
2023-04-18T20:43:47.994Z,13.02
2023-04-18T20:46:17.921Z,14.30
2023-04-18T20:48:45.914Z,13.60
2023-04-18T20:51:14.324Z,12.43
2023-04-18T20:53:43.471Z,12.70
2023-04-18T20:56:11.426Z,13.23
2023-04-18T20:58:40.596Z,13.25
2023-04-18T21:01:10.379Z,12.43
2023-04-18T21:03:38.500Z,13.57
2023-04-18T21:06:06.825Z,13.10
2023-04-18T21:08:38.325Z,11.35
2023-04-18T21:11:06.883Z,12.45
2023-04-18T21:13:35.907Z,12.88
2023-04-18T21:16:07.533Z,12.70
2023-04-18T21:18:37.986Z,14.23
2023-04-18T21:23:33.970Z,14.55
2023-04-18T21:26:02.830Z,12.35
2023-04-18T21:28:30.908Z,14.23
2023-04-18T21:30:59.556Z,12.80
2023-04-18T21:33:28.250Z,12.35
2023-04-18T21:35:58.035Z,12.65
2023-04-18T21:38:26.867Z,14.77
2023-04-18T21:40:54.805Z,11.75
2023-04-18T21:43:23.778Z,13.00
2023-04-18T21:45:52.400Z,12.27
2023-04-18T21:48:20.657Z,11.85
2023-04-18T21:50:55.613Z,11.80
2023-04-18T21:53:26.684Z,12.27
2023-04-18T21:55:54.649Z,11.45
2023-04-18T21:58:23.618Z,11.65
2023-04-18T22:00:51.780Z,10.80
2023-04-18T22:03:20.348Z,12.18
2023-04-18T22:05:48.834Z,12.85
2023-04-18T22:08:16.901Z,11.98
2023-04-18T22:10:50.900Z,12.60
2023-04-18T22:13:19.045Z,12.10
2023-04-18T22:15:47.033Z,11.30
2023-04-18T22:18:16.626Z,11.95
2023-04-18T22:20:44.620Z,10.38
2023-04-18T22:23:13.537Z,12.25
2023-04-18T22:25:41.662Z,12.00
2023-04-18T22:28:13.482Z,9.60
2023-04-18T22:30:41.629Z,10.68
2023-04-18T22:33:10.650Z,9.07
2023-04-18T22:35:38.696Z,8.60
2023-04-18T22:38:06.834Z,8.68
2023-04-18T22:40:35.806Z,8.50
2023-04-18T22:43:03.785Z,7.90
2023-04-18T22:45:34.508Z,7.10
2023-04-18T22:48:03.429Z,8.30
2023-04-18T22:50:31.462Z,8.82
2023-04-18T22:53:00.464Z,6.40
2023-04-18T22:55:28.465Z,8.40
2023-04-18T22:57:57.172Z,9.32
2023-04-18T23:00:25.929Z,7.90
2023-04-18T23:02:55.462Z,7.18
2023-04-18T23:05:24.189Z,7.13
2023-04-18T23:07:52.586Z,8.40
2023-04-18T23:10:20.704Z,6.18
2023-04-18T23:12:49.087Z,7.15
2023-04-18T23:15:17.262Z,7.28
2023-04-18T23:17:45.679Z,7.40
2023-04-18T23:20:16.092Z,5.70
2023-04-18T23:22:44.615Z,6.93
2023-04-18T23:25:13.244Z,6.95
2023-04-18T23:27:41.279Z,6.18
2023-04-18T23:30:10.754Z,7.95
2023-04-18T23:32:38.809Z,6.80
2023-04-18T23:35:06.979Z,6.43
2023-04-18T23:37:36.849Z,6.53
2023-04-18T23:40:06.853Z,6.10
2023-04-18T23:42:35.830Z,6.20
2023-04-18T23:45:06.156Z,6.25
2023-04-18T23:50:02.206Z,7.68
2023-04-18T23:52:31.189Z,5.40
2023-04-18T23:55:02.243Z,4.70
2023-04-18T23:57:30.802Z,5.18
